Time;durP1;ratioP1;P1;durP2;ratioP2;P2;SDS_P1;SDS_P2;PMS_P1;PMS_P2;Temp;Humidity;BMP_temperature;BMP_pressure;BME280_temperature;BME280_humidity;BME280_pressure;Samples;Min_cycle;Max_cycle;Signal;HPM_P1;HPM_P2
2021/12/18 00:01:04;;;;;;;8.55;4.80;;;;;;;3.33;85.57;101473.84;6183549;23;20013;-83
2021/12/18 00:03:30;;;;;;;9.38;4.90;;;;;;;3.33;85.76;101490.31;6183231;23;20020;-82
2021/12/18 00:05:56;;;;;;;7.25;4.57;;;;;;;3.32;85.67;101483.22;6182957;23;20017;-82
2021/12/18 00:08:21;;;;;;;8.35;4.80;;;;;;;3.29;85.53;101483.94;6183550;23;20066;-82
2021/12/18 00:10:47;;;;;;;5.32;3.33;;;;;;;3.34;85.30;101474.66;6157224;23;20005;-82
2021/12/18 00:13:13;;;;;;;7.53;4.65;;;;;;;3.33;85.53;101471.09;6183069;23;20020;-82
2021/12/18 00:15:39;;;;;;;8.65;4.70;;;;;;;3.34;85.12;101483.69;6183467;23;20444;-82
2021/12/18 00:18:04;;;;;;;7.43;4.68;;;;;;;3.30;85.40;101485.53;6182499;23;20016;-82
2021/12/18 00:20:30;;;;;;;9.55;5.28;;;;;;;3.30;85.47;101496.50;6157558;23;20339;-83
2021/12/18 00:22:56;;;;;;;8.25;5.45;;;;;;;3.22;85.73;101490.03;6182801;23;20011;-83
2021/12/18 00:25:22;;;;;;;9.35;5.07;;;;;;;3.24;85.88;101511.59;6183607;23;20013;-82
2021/12/18 00:27:48;;;;;;;11.18;5.78;;;;;;;3.17;85.69;101503.19;6183967;23;20019;-83
2021/12/18 00:30:13;;;;;;;8.68;4.97;;;;;;;3.20;86.03;101503.28;6157568;23;20013;-83
2021/12/18 00:32:39;;;;;;;8.57;5.57;;;;;;;3.19;85.87;101518.16;6183349;23;20032;-83
2021/12/18 00:35:05;;;;;;;12.10;5.40;;;;;;;3.22;85.67;101519.41;6183879;23;20017;-83
2021/12/18 00:37:31;;;;;;;9.48;5.15;;;;;;;3.19;86.02;101517.38;6183811;23;20004;-84
2021/12/18 00:39:59;;;;;;;7.32;3.80;;;;;;;3.21;85.63;101495.88;6183310;23;20108;-83
2021/12/18 00:45:14;;;;;;;10.52;5.70;;;;;;;3.23;85.57;101523.75;6183908;23;20136;-83
2021/12/18 00:47:41;;;;;;;8.77;4.00;;;;;;;3.22;85.73;101519.41;6157141;23;20017;-83
2021/12/18 00:50:11;;;;;;;9.45;5.00;;;;;;;3.21;85.53;101520.53;6183713;23;20383;-83
2021/12/18 00:52:37;;;;;;;7.78;5.13;;;;;;;3.15;85.84;101514.53;6157009;23;20083;-83
2021/12/18 00:55:03;;;;;;;6.78;4.90;;;;;;;3.19;85.54;101518.16;6183335;23;20436;-83
2021/12/18 00:57:29;;;;;;;7.88;5.10;;;;;;;3.11;85.65;101508.16;6132808;23;20001;-83
2021/12/18 00:59:59;;;;;;;8.32;5.00;;;;;;;3.16;85.50;101529.00;6183368;23;20135;-83
2021/12/18 01:02:25;;;;;;;6.55;4.57;;;;;;;3.15;85.37;101532.94;6183276;23;20028;-84
2021/12/18 01:04:51;;;;;;;11.35;6.00;;;;;;;3.15;85.36;101543.91;6183032;23;20017;-83
2021/12/18 01:07:16;;;;;;;7.57;4.38;;;;;;;3.10;85.33;101535.91;6182394;23;20040;-82
2021/12/18 01:12:08;;;;;;;9.13;4.50;;;;;;;3.05;84.91;101553.41;6156265;23;20343;-83
2021/12/18 01:15:01;;;;;;;7.25;4.63;;;;;;;3.06;84.18;101552.28;6183818;23;20013;-83
2021/12/18 01:22:49;;;;;;;7.22;4.32;;;;;;;3.17;82.61;101536.91;6183593;23;20009;-83
2021/12/18 01:25:16;;;;;;;7.50;4.55;;;;;;;3.21;82.67;101535.06;6182884;23;20088;-82
2021/12/18 01:27:42;;;;;;;8.82;4.60;;;;;;;3.18;82.25;101537.69;6183065;23;20051;-83
2021/12/18 01:30:10;;;;;;;8.63;3.95;;;;;;;3.22;81.26;101522.16;6156810;23;20013;-83
2021/12/18 01:32:35;;;;;;;4.75;3.15;;;;;;;3.27;80.88;101527.38;6183453;23;20061;-82
2021/12/18 01:35:03;;;;;;;7.03;4.13;;;;;;;3.25;80.52;101510.47;6156232;23;20013;-82
2021/12/18 01:37:28;;;;;;;6.50;3.25;;;;;;;3.32;80.21;101510.66;6156884;23;20336;-83
2021/12/18 01:39:54;;;;;;;7.00;3.92;;;;;;;3.34;80.27;101511.09;6182289;23;20019;-82
2021/12/18 01:45:11;;;;;;;9.10;3.75;;;;;;;3.53;78.77;101508.47;6183143;23;20075;-84
2021/12/18 01:53:11;;;;;;;6.65;4.07;;;;;;;3.56;78.74;101477.56;6182493;23;20092;-84
2021/12/18 01:55:39;;;;;;;6.60;3.22;;;;;;;3.57;78.33;101470.94;6183778;23;20013;-83
2021/12/18 01:58:06;;;;;;;7.95;4.20;;;;;;;3.57;78.53;101475.63;6182827;23;20093;-83
2021/12/18 02:00:36;;;;;;;7.40;3.97;;;;;;;3.56;78.71;101493.25;6156718;23;20068;-84
2021/12/18 02:20:59;;;;;;;10.38;4.88;;;;;;;3.52;79.22;101470.41;6211729;23;20012;-80
2021/12/18 02:23:25;;;;;;;8.30;4.47;;;;;;;3.49;79.55;101487.56;6212919;23;20043;-80
2021/12/18 02:25:51;;;;;;;6.63;3.83;;;;;;;3.43;79.20;101478.81;6211904;23;20070;-80
2021/12/18 02:28:25;;;;;;;10.30;4.32;;;;;;;3.52;78.91;101497.84;6212909;23;20020;-80
2021/12/18 02:30:53;;;;;;;5.55;3.65;;;;;;;3.56;78.46;101479.53;6213263;23;20012;-80
2021/12/18 02:33:19;;;;;;;5.85;3.30;;;;;;;3.58;78.04;101486.25;6211271;23;20027;-80
2021/12/18 02:35:50;;;;;;;7.40;3.13;;;;;;;3.60;77.82;101467.47;6213396;23;20015;-80
2021/12/18 02:38:20;;;;;;;7.18;3.95;;;;;;;3.57;78.20;101459.16;6211074;23;20017;-80
2021/12/18 02:41:11;;;;;;;9.50;4.20;;;;;;;3.57;78.34;101473.66;6211493;23;20036;-80
2021/12/18 02:43:38;;;;;;;5.38;3.05;;;;;;;3.57;78.36;101473.66;6211807;23;20648;-81
2021/12/18 02:46:08;;;;;;;8.55;3.95;;;;;;;3.52;78.70;101465.69;6212783;23;20005;-81
2021/12/18 02:48:40;;;;;;;7.22;4.00;;;;;;;3.46;78.97;101467.13;6212264;23;20012;-80
2021/12/18 02:51:08;;;;;;;7.27;3.70;;;;;;;3.43;79.04;101456.06;6211438;23;20016;-81
2021/12/18 02:53:35;;;;;;;7.30;4.00;;;;;;;3.43;79.37;101461.56;6211400;23;20239;-80
2021/12/18 02:56:03;;;;;;;7.93;4.50;;;;;;;3.41;79.91;101450.94;6211042;23;20013;-80
2021/12/18 02:58:30;;;;;;;6.82;4.05;;;;;;;3.29;80.03;101446.34;6212843;23;20012;-81
2021/12/18 03:00:57;;;;;;;7.65;4.28;;;;;;;3.33;80.20;101473.84;6213198;23;20442;-81
2021/12/18 03:03:26;;;;;;;5.88;3.63;;;;;;;3.36;79.49;101467.66;6212078;23;20032;-80
2021/12/18 03:06:31;;;;;;;6.72;4.10;;;;;;;3.26;80.18;101468.19;6213014;23;20013;-80
2021/12/18 03:09:19;;;;;;;7.20;4.00;;;;;;;3.29;80.25;101494.91;6212267;23;20028;-80
2021/12/18 03:25:28;;;;;;;7.55;4.40;;;;;;;3.21;80.66;101510.38;6213300;23;20052;-80
2021/12/18 03:27:54;;;;;;;9.27;4.70;;;;;;;3.13;80.91;101511.34;6215033;23;20075;-80
2021/12/18 03:30:20;;;;;;;6.65;4.03;;;;;;;3.06;80.97;101524.06;6213118;23;20013;-80
2021/12/18 03:32:46;;;;;;;7.47;4.55;;;;;;;3.02;81.07;101503.97;6214863;23;20001;-80
2021/12/18 03:35:12;;;;;;;10.50;4.43;;;;;;;3.07;81.41;101518.22;6212535;23;20019;-80
2021/12/18 03:37:39;;;;;;;7.28;4.28;;;;;;;3.02;81.33;101523.97;6214821;23;20354;-80
2021/12/18 03:40:07;;;;;;;8.75;4.68;;;;;;;3.04;81.59;101540.03;6213282;23;20087;-80
2021/12/18 03:42:32;;;;;;;7.93;4.10;;;;;;;2.97;81.61;101526.16;6212985;23;20001;-80
2021/12/18 03:44:58;;;;;;;8.23;4.15;;;;;;;2.98;81.73;101534.03;6214942;23;20055;-80
2021/12/18 03:47:23;;;;;;;8.50;4.53;;;;;;;3.00;81.53;101541.88;6212933;23;20011;-81
2021/12/18 03:49:49;;;;;;;8.82;4.60;;;;;;;3.01;81.66;101538.00;6214457;23;20091;-81
2021/12/18 03:52:15;;;;;;;10.38;4.80;;;;;;;3.01;81.77;101554.47;6214589;23;20008;-80
2021/12/18 03:54:40;;;;;;;9.20;4.70;;;;;;;2.98;81.72;101550.47;6213236;23;20035;-82
2021/12/18 03:57:06;;;;;;;7.97;4.72;;;;;;;2.95;82.24;101553.94;6212981;23;20431;-82
2021/12/18 03:59:32;;;;;;;7.28;4.47;;;;;;;2.91;81.87;101541.25;6214274;23;20426;-80
2021/12/18 04:01:57;;;;;;;7.30;4.40;;;;;;;3.06;81.41;101556.97;6214870;23;20088;-82
2021/12/18 04:04:23;;;;;;;8.23;4.60;;;;;;;3.05;81.45;101560.84;6212268;23;20005;-82
2021/12/18 04:06:49;;;;;;;7.43;4.68;;;;;;;3.01;81.53;101557.19;6188038;23;20012;-82
2021/12/18 04:09:14;;;;;;;9.57;4.63;;;;;;;2.99;81.78;101545.78;6214040;23;20004;-82
2021/12/18 04:11:41;;;;;;;6.57;4.30;;;;;;;2.95;81.46;101545.69;6214106;23;20013;-82
2021/12/18 04:14:07;;;;;;;6.15;4.63;;;;;;;3.06;81.15;101551.47;6214414;23;20009;-81
2021/12/18 04:16:34;;;;;;;7.80;4.80;;;;;;;3.04;81.20;101554.53;6213274;23;20019;-82
2021/12/18 04:19:03;;;;;;;9.15;4.30;;;;;;;2.91;81.65;101522.06;6212124;23;20020;-81
2021/12/18 04:21:30;;;;;;;8.65;4.68;;;;;;;3.02;81.51;101553.31;6187692;23;20170;-81
2021/12/18 04:23:55;;;;;;;10.70;4.75;;;;;;;2.97;81.43;101548.06;6212984;23;20023;-82
2021/12/18 04:26:21;;;;;;;8.27;3.90;;;;;;;2.94;81.65;101544.09;6213861;23;20005;-82
2021/12/18 04:28:46;;;;;;;7.57;4.25;;;;;;;3.01;81.64;101549.78;6212367;23;20013;-82
2021/12/18 04:31:12;;;;;;;7.78;3.97;;;;;;;2.98;81.63;101523.06;6214187;23;20012;-81
2021/12/18 04:33:38;;;;;;;7.82;4.72;;;;;;;2.92;81.41;101515.44;6214018;23;20008;-82
2021/12/18 04:36:04;;;;;;;8.88;4.50;;;;;;;2.98;81.61;101528.56;6187443;23;20095;-81
2021/12/18 04:38:31;;;;;;;9.02;4.50;;;;;;;2.90;81.80;101525.97;6212423;23;20004;-81
2021/12/18 04:40:58;;;;;;;8.98;5.03;;;;;;;2.83;82.16;101516.38;6214288;23;20017;-81
2021/12/18 04:43:23;;;;;;;9.73;4.97;;;;;;;2.94;82.02;101504.94;6212106;23;20004;-82
2021/12/18 04:45:51;;;;;;;6.82;3.60;;;;;;;2.93;82.13;101519.78;6213901;23;20017;-81
2021/12/18 04:48:17;;;;;;;9.30;4.80;;;;;;;2.86;82.13;101520.38;6213951;23;20012;-81
2021/12/18 04:50:43;;;;;;;7.25;4.40;;;;;;;2.91;82.30;101522.06;6213596;23;20016;-82
2021/12/18 04:53:09;;;;;;;10.15;4.57;;;;;;;2.93;82.22;101515.09;6213365;23;20079;-81
2021/12/18 04:55:35;;;;;;;7.90;4.60;;;;;;;2.92;82.37;101520.91;6214219;23;20055;-82
2021/12/18 04:58:00;;;;;;;8.00;4.65;;;;;;;2.85;82.59;101523.47;6213810;23;20438;-82
2021/12/18 05:00:35;;;;;;;9.93;4.15;;;;;;;2.87;82.76;101526.66;6213215;23;20351;-81
2021/12/18 05:03:05;;;;;;;7.95;4.95;;;;;;;2.83;83.10;101536.72;6213547;23;20020;-81
2021/12/18 05:05:30;;;;;;;11.30;5.32;;;;;;;2.87;82.94;101526.66;6213423;23;20013;-81
2021/12/18 05:07:56;;;;;;;9.55;4.72;;;;;;;2.88;82.99;101531.78;6213581;23;20079;-81
2021/12/18 05:10:21;;;;;;;10.43;5.13;;;;;;;2.82;83.26;101530.44;6213684;23;20515;-82
2021/12/18 05:12:47;;;;;;;9.73;4.78;;;;;;;2.73;83.55;101527.03;6213809;23;20089;-81
2021/12/18 05:15:13;;;;;;;7.05;4.45;;;;;;;2.80;83.21;101547.22;6213167;23;20001;-82
2021/12/18 05:17:38;;;;;;;9.02;4.90;;;;;;;2.77;83.61;101544.38;6213779;23;20324;-82
2021/12/18 05:20:05;;;;;;;7.47;4.55;;;;;;;2.80;82.97;101544.47;6213469;23;20024;-81
2021/12/18 05:22:30;;;;;;;8.45;5.22;;;;;;;2.84;83.24;101555.53;6212133;23;20017;-82
2021/12/18 05:24:56;;;;;;;12.10;5.43;;;;;;;2.78;83.49;101560.50;6212845;23;20013;-81
2021/12/18 05:27:21;;;;;;;8.43;4.75;;;;;;;2.71;83.58;101571.22;6213465;23;20003;-81
2021/12/18 05:29:47;;;;;;;7.72;4.78;;;;;;;2.74;83.42;101562.31;6213800;23;20164;-81
2021/12/18 05:32:12;;;;;;;12.43;5.00;;;;;;;2.72;83.30;101575.56;6213231;23;20012;-81
2021/12/18 05:34:39;;;;;;;7.47;4.57;;;;;;;2.73;83.17;101571.69;6213126;23;20012;-81
2021/12/18 05:37:32;;;;;;;5.32;3.75;;;;;;;2.75;83.28;101574.88;6213897;23;20016;-81
2021/12/18 05:39:58;;;;;;;9.82;4.82;;;;;;;2.72;83.52;101589.25;6212962;23;20537;-82
2021/12/18 05:42:24;;;;;;;9.27;4.38;;;;;;;2.64;83.46;101581.97;6211373;23;20027;-81
2021/12/18 05:44:49;;;;;;;7.93;4.85;;;;;;;2.65;83.66;101580.03;6213123;23;20773;-81
2021/12/18 05:47:15;;;;;;;6.10;3.65;;;;;;;2.67;83.36;101584.00;6211987;23;20012;-81
2021/12/18 05:49:41;;;;;;;9.15;4.50;;;;;;;2.64;83.56;101601.16;6211302;23;20036;-81
2021/12/18 05:52:07;;;;;;;7.72;4.50;;;;;;;2.58;83.28;101591.59;6213395;23;20004;-81
2021/12/18 05:54:35;;;;;;;6.10;3.90;;;;;;;2.66;83.00;101603.56;6213169;23;20393;-81
2021/12/18 05:57:05;;;;;;;6.78;4.15;;;;;;;2.62;82.74;101606.19;6213104;23;20051;-82
2021/12/18 05:59:31;;;;;;;8.07;4.15;;;;;;;2.61;82.46;101601.84;6211465;23;20020;-81
2021/12/18 06:01:57;;;;;;;8.13;4.03;;;;;;;2.65;82.60;101597.28;6213377;23;20013;-81
2021/12/18 06:04:22;;;;;;;8.85;4.13;;;;;;;2.56;82.61;101604.81;6213022;23;20008;-81
2021/12/18 06:06:48;;;;;;;7.00;3.70;;;;;;;2.54;82.63;101607.13;6186552;23;20059;-81
2021/12/18 06:09:13;;;;;;;7.88;3.92;;;;;;;2.50;82.49;101598.00;6213008;23;20350;-81
2021/12/18 06:11:40;;;;;;;8.45;4.00;;;;;;;2.55;82.23;101600.47;6213668;23;20087;-81
2021/12/18 06:14:07;;;;;;;5.63;3.25;;;;;;;2.55;82.18;101619.66;6212683;23;20013;-81
2021/12/18 06:16:32;;;;;;;6.85;3.30;;;;;;;2.56;82.16;101615.78;6212820;23;20063;-81
2021/12/18 06:18:58;;;;;;;5.97;4.10;;;;;;;2.52;82.61;101614.88;6213027;23;20024;-81
2021/12/18 06:21:23;;;;;;;8.93;3.95;;;;;;;2.57;82.23;101622.06;6212487;23;20454;-81
2021/12/18 06:23:51;;;;;;;6.03;3.38;;;;;;;2.57;82.17;101622.84;6212834;23;20020;-81
2021/12/18 06:26:18;;;;;;;10.13;4.32;;;;;;;2.55;82.41;101616.13;6186226;23;20013;-80
2021/12/18 06:28:44;;;;;;;10.05;4.50;;;;;;;2.60;82.23;101607.66;6211659;23;20006;-81
2021/12/18 06:31:09;;;;;;;8.30;4.03;;;;;;;2.54;82.70;101618.06;6212711;23;20413;-81
2021/12/18 06:33:35;;;;;;;9.82;4.82;;;;;;;2.52;82.82;101620.34;6212655;23;20475;-81
2021/12/18 06:36:01;;;;;;;8.70;4.13;;;;;;;2.54;82.89;101629.03;6213233;23;20000;-81
2021/12/18 06:38:26;;;;;;;8.35;4.10;;;;;;;2.52;83.22;101630.50;6210732;23;20013;-81
2021/12/18 06:40:52;;;;;;;7.68;3.78;;;;;;;2.52;82.97;101641.47;6211120;23;20070;-81
2021/12/18 06:43:18;;;;;;;8.10;4.57;;;;;;;2.53;83.16;101643.88;6211366;23;20012;-81
2021/12/18 06:45:43;;;;;;;9.02;4.75;;;;;;;2.45;83.35;101636.56;6212838;23;20013;-81
2021/12/18 06:48:11;;;;;;;9.73;4.60;;;;;;;2.49;83.47;101655.84;6210919;23;20012;-81
2021/12/18 06:50:37;;;;;;;8.15;4.43;;;;;;;2.47;83.90;101666.38;6211267;23;20082;-81
2021/12/18 06:53:04;;;;;;;8.30;4.35;;;;;;;2.47;84.04;101661.66;6211427;23;20036;-81
2021/12/18 06:55:30;;;;;;;8.75;4.72;;;;;;;2.47;83.25;101653.44;6211097;23;20004;-81
2021/12/18 06:57:56;;;;;;;8.73;4.72;;;;;;;2.46;83.47;101640.91;6211320;23;20013;-80
2021/12/18 07:00:23;;;;;;;8.90;4.60;;;;;;;2.57;83.07;101674.91;6212094;23;20349;-81
2021/12/18 07:02:49;;;;;;;10.75;5.25;;;;;;;2.59;83.02;101674.56;6211174;23;20107;-81
2021/12/18 07:05:15;;;;;;;7.85;4.45;;;;;;;2.60;83.00;101679.69;6212231;23;20040;-81
2021/12/18 07:07:40;;;;;;;8.32;4.57;;;;;;;2.62;82.73;101679.34;6213008;23;20435;-81
2021/12/18 07:10:08;;;;;;;9.98;4.95;;;;;;;2.63;83.12;101680.97;6212329;23;20037;-81
2021/12/18 07:12:34;;;;;;;8.80;4.60;;;;;;;2.73;81.85;101680.47;6212463;23;20103;-81
2021/12/18 07:15:00;;;;;;;15.88;4.85;;;;;;;2.76;81.94;101691.56;6212504;23;20013;-81
2021/12/18 07:17:25;;;;;;;9.07;4.60;;;;;;;2.79;82.02;101699.06;6212846;23;20062;-81
2021/12/18 07:19:51;;;;;;;8.60;4.55;;;;;;;2.86;82.10;101687.56;6212609;23;20454;-81
2021/12/18 07:22:17;;;;;;;9.75;4.53;;;;;;;2.87;81.83;101696.59;6212740;23;20019;-81
2021/12/18 07:24:42;;;;;;;10.32;4.40;;;;;;;2.87;81.38;101699.31;6212833;23;20439;-81
2021/12/18 07:27:08;;;;;;;8.35;4.25;;;;;;;2.88;81.06;101698.16;6212696;23;20040;-81
2021/12/18 07:29:33;;;;;;;6.55;4.13;;;;;;;2.94;81.16;101699.53;6212480;23;20252;-81
2021/12/18 07:31:59;;;;;;;9.02;4.90;;;;;;;2.94;81.01;101705.00;6212671;23;20023;-81
2021/12/18 07:34:25;;;;;;;8.57;4.70;;;;;;;2.91;80.76;101686.53;6212441;23;20059;-81
2021/12/18 07:36:50;;;;;;;8.38;4.32;;;;;;;2.94;80.68;101700.34;6212908;23;20012;-81
2021/12/18 07:39:16;;;;;;;7.60;4.07;;;;;;;3.06;81.50;101705.00;6211158;23;20016;-81
2021/12/18 07:41:41;;;;;;;9.00;4.57;;;;;;;3.07;80.83;101717.56;6212759;23;20446;-81
2021/12/18 07:44:07;;;;;;;9.77;4.53;;;;;;;3.03;80.67;101701.00;6211217;23;20064;-81
2021/12/18 07:46:34;;;;;;;9.30;4.65;;;;;;;3.08;80.22;101708.16;6212112;23;20013;-81
2021/12/18 07:49:00;;;;;;;8.98;5.28;;;;;;;3.10;80.33;101709.44;6212293;23;20087;-81
2021/12/18 07:51:26;;;;;;;10.00;4.57;;;;;;;3.18;80.71;101704.97;6212134;23;20028;-81
2021/12/18 07:53:51;;;;;;;7.03;4.60;;;;;;;3.08;80.10;101692.53;6212609;23;20012;-81
2021/12/18 07:56:18;;;;;;;10.40;5.10;;;;;;;3.18;80.06;101697.53;6210720;23;20078;-82
2021/12/18 07:58:44;;;;;;;11.23;4.93;;;;;;;3.17;80.09;101690.44;6212340;23;20023;-81
2021/12/18 08:01:10;;;;;;;9.20;4.40;;;;;;;3.12;80.26;101698.13;6211897;23;20088;-81
2021/12/18 08:03:35;;;;;;;9.80;4.70;;;;;;;3.12;80.08;101685.22;6213185;23;20325;-81
2021/12/18 08:06:01;;;;;;;9.10;4.70;;;;;;;3.17;79.80;101689.66;6214862;23;20454;-81
2021/12/18 08:08:26;;;;;;;8.80;4.72;;;;;;;3.17;80.05;101689.66;6211962;23;20139;-81
2021/12/18 08:10:52;;;;;;;9.40;4.57;;;;;;;3.12;79.49;101673.44;6212863;23;20001;-81
2021/12/18 08:13:17;;;;;;;7.45;4.75;;;;;;;3.19;79.86;101687.38;6214167;23;20346;-81
2021/12/18 08:15:43;;;;;;;8.65;4.80;;;;;;;3.24;79.15;101674.19;6214492;23;20067;-81
2021/12/18 08:18:08;;;;;;;8.88;4.60;;;;;;;3.27;79.32;101686.44;6213640;23;20062;-81
2021/12/18 08:20:35;;;;;;;8.35;4.88;;;;;;;3.26;79.14;101676.59;6213259;23;20397;-82
2021/12/18 08:23:00;;;;;;;8.70;4.45;;;;;;;3.43;79.30;101692.78;6213736;23;20019;-81
2021/12/18 08:25:27;;;;;;;9.98;5.32;;;;;;;3.44;79.07;101699.06;6213741;23;20028;-81
2021/12/18 08:27:55;;;;;;;9.57;4.93;;;;;;;3.46;78.58;101705.78;6211965;23;20156;-81
2021/12/18 08:30:22;;;;;;;9.00;5.00;;;;;;;3.48;78.89;101706.22;6213698;23;20202;-82
2021/12/18 08:32:48;;;;;;;7.47;4.78;;;;;;;3.56;78.34;101702.53;6214503;23;20013;-81
2021/12/18 08:35:14;;;;;;;11.63;5.53;;;;;;;3.65;77.96;101711.44;6214071;23;20326;-81
2021/12/18 08:37:40;;;;;;;9.18;4.57;;;;;;;3.59;77.18;101696.38;6213889;23;20462;-81
2021/12/18 08:40:06;;;;;;;9.05;5.03;;;;;;;3.76;77.30;101718.00;6213585;23;20036;-81
2021/12/18 08:42:32;;;;;;;8.98;4.90;;;;;;;3.74;77.43;101719.53;6211790;23;20012;-81
2021/12/18 08:44:57;;;;;;;6.85;4.50;;;;;;;3.61;76.49;101699.56;6214142;23;20000;-81
2021/12/18 08:47:23;;;;;;;8.35;4.70;;;;;;;3.67;76.53;101702.84;6212336;23;20083;-81
2021/12/18 08:49:48;;;;;;;10.27;4.63;;;;;;;3.81;76.12;101724.38;6213881;23;20139;-81
2021/12/18 08:52:14;;;;;;;8.63;4.57;;;;;;;3.76;75.60;101718.00;6214271;23;20048;-81
2021/12/18 08:54:40;;;;;;;6.95;4.50;;;;;;;3.78;76.12;101714.13;6213375;23;20017;-81
2021/12/18 08:57:05;;;;;;;7.70;4.82;;;;;;;3.90;76.15;101719.56;6213508;23;20009;-80
2021/12/18 08:59:31;;;;;;;8.88;4.78;;;;;;;3.96;75.49;101721.72;6212920;23;20044;-81
2021/12/18 09:01:56;;;;;;;10.80;5.78;;;;;;;4.08;75.23;101709.84;6214345;23;20009;-80
2021/12/18 09:04:22;;;;;;;9.50;4.60;;;;;;;4.09;74.92;101711.44;6212930;23;20043;-81
2021/12/18 09:06:47;;;;;;;6.68;3.90;;;;;;;4.07;74.61;101705.50;6213524;23;20058;-81
2021/12/18 09:09:13;;;;;;;13.23;5.45;;;;;;;4.16;74.72;101708.88;6213696;23;20060;-81
2021/12/18 09:11:38;;;;;;;8.43;4.68;;;;;;;4.19;73.35;101699.94;6212684;23;20012;-81
2021/12/18 09:14:04;;;;;;;9.45;4.47;;;;;;;4.22;73.98;101701.97;6212637;23;20008;-81
2021/12/18 09:16:32;;;;;;;4.97;3.08;;;;;;;4.21;73.40;101694.88;6213165;23;20395;-81
2021/12/18 09:18:57;;;;;;;9.65;4.70;;;;;;;4.29;74.77;101695.88;6211580;23;20047;-81
2021/12/18 09:21:23;;;;;;;7.88;4.50;;;;;;;4.30;73.06;101698.25;6211363;23;20016;-81
2021/12/18 09:23:48;;;;;;;10.10;4.30;;;;;;;4.23;72.77;101692.59;6211272;23;20067;-81
2021/12/18 09:26:14;;;;;;;6.32;4.60;;;;;;;4.30;73.81;101691.97;6213785;23;20312;-81
2021/12/18 09:28:40;;;;;;;5.55;3.53;;;;;;;4.36;73.49;101688.59;6210663;23;20410;-82
2021/12/18 09:31:05;;;;;;;6.80;3.88;;;;;;;4.37;73.06;101672.94;6212138;23;20008;-81
2021/12/18 09:33:31;;;;;;;7.07;4.05;;;;;;;4.52;73.29;101689.41;6212288;23;20496;-83
2021/12/18 09:35:57;;;;;;;9.43;4.40;;;;;;;4.49;72.45;101690.09;6212260;23;20446;-83
2021/12/18 09:38:22;;;;;;;9.70;4.50;;;;;;;4.51;72.73;101689.75;6210788;23;20016;-83
2021/12/18 09:40:48;;;;;;;9.65;4.53;;;;;;;4.55;72.36;101672.19;6211270;23;20005;-84
2021/12/18 09:43:14;;;;;;;10.10;4.90;;;;;;;4.65;72.41;101676.34;6211642;23;20013;-83
2021/12/18 09:45:40;;;;;;;9.98;4.82;;;;;;;4.81;72.41;101684.56;6209733;23;20074;-83
2021/12/18 09:48:06;;;;;;;9.15;4.70;;;;;;;4.88;71.75;101685.53;6211966;23;20020;-85
2021/12/18 09:50:34;;;;;;;7.03;4.60;;;;;;;4.86;71.18;101673.28;6184617;23;20008;-84
2021/12/18 09:53:00;;;;;;;7.38;3.88;;;;;;;4.97;70.89;101672.38;6211459;23;20031;-84
2021/12/18 09:55:26;;;;;;;8.32;4.10;;;;;;;5.04;71.29;101671.72;6211185;23;20012;-83
2021/12/18 09:57:51;;;;;;;9.38;4.30;;;;;;;5.09;70.40;101680.50;6211747;23;20012;-83
2021/12/18 10:00:20;;;;;;;7.78;3.92;;;;;;;5.18;70.53;101688.53;6210101;23;20450;-83
2021/12/18 10:02:46;;;;;;;7.40;4.30;;;;;;;5.20;70.38;101679.91;6211038;23;20001;-84
2021/12/18 10:05:32;;;;;;;7.80;4.13;;;;;;;5.26;69.49;101673.75;6211950;23;20020;-83
2021/12/18 10:08:12;;;;;;;9.32;5.38;;;;;;;5.34;70.02;101686.50;6211250;23;20014;-83
2021/12/18 10:10:58;;;;;;;9.10;4.65;;;;;;;5.41;68.95;101681.16;6209850;23;20390;-83
2021/12/18 10:13:23;;;;;;;7.97;4.60;;;;;;;5.63;69.36;101685.13;6210599;23;20459;-83
2021/12/18 10:16:08;;;;;;;7.93;4.80;;;;;;;5.67;68.78;101699.75;6211395;23;20005;-83
2021/12/18 10:18:33;;;;;;;8.25;4.72;;;;;;;5.68;68.51;101700.56;6211139;23;20615;-83
2021/12/18 10:21:22;;;;;;;8.48;5.32;;;;;;;5.74;68.97;101688.09;6213576;23;20015;-82
2021/12/18 10:23:49;;;;;;;9.50;4.80;;;;;;;5.75;68.62;101684.16;6212781;23;20542;-82
2021/12/18 10:26:34;;;;;;;7.95;4.45;;;;;;;5.77;69.14;101687.38;6211671;23;20001;-82
2021/12/18 10:29:01;;;;;;;8.35;4.22;;;;;;;5.74;68.94;101677.88;6211393;23;20043;-82
2021/12/18 10:31:44;;;;;;;10.57;5.05;;;;;;;5.88;68.46;101672.66;6211180;23;20005;-83
2021/12/18 10:34:23;;;;;;;8.40;5.32;;;;;;;5.87;68.13;101654.53;6186053;23;20324;-82
2021/12/18 10:37:12;;;;;;;7.55;5.00;;;;;;;6.00;68.44;101671.69;6211509;23;20015;-84
2021/12/18 10:40:01;;;;;;;9.80;5.68;;;;;;;5.97;68.72;101659.47;6211255;23;20142;-84
2021/12/18 10:42:35;;;;;;;8.77;4.80;;;;;;;6.13;68.79;101662.09;6207306;23;20020;-85
2021/12/18 10:45:16;;;;;;;8.85;5.18;;;;;;;6.09;68.42;101672.25;6212367;23;20376;-84
2021/12/18 10:48:14;;;;;;;9.30;4.65;;;;;;;6.01;67.85;101678.81;6211245;23;20016;-85
2021/12/18 10:50:51;;;;;;;10.63;5.63;;;;;;;6.01;69.26;101676.06;6200024;23;20091;-84
2021/12/18 10:53:31;;;;;;;11.25;5.80;;;;;;;5.97;69.38;101691.72;6211965;23;20039;-83
2021/12/18 10:56:01;;;;;;;8.38;5.10;;;;;;;6.06;69.16;101684.00;6213204;23;20012;-84
2021/12/18 10:58:32;;;;;;;7.68;4.75;;;;;;;6.25;68.74;101692.22;6212848;23;20018;-84
2021/12/18 11:01:00;;;;;;;9.48;5.43;;;;;;;6.27;68.13;101683.59;6212658;23;20059;-84
2021/12/18 11:03:27;;;;;;;10.45;5.53;;;;;;;6.26;68.68;101682.78;6211243;23;20001;-84
2021/12/18 11:06:17;;;;;;;10.30;5.45;;;;;;;6.36;69.22;101676.66;6213168;23;20067;-84
2021/12/18 11:09:01;;;;;;;9.90;5.72;;;;;;;6.42;68.60;101672.44;6211486;23;20028;-84
2021/12/18 11:14:05;;;;;;;;;;;;;;;6.42;69.03;101688.97;6213170;23;19916;-84
2021/12/18 11:16:35;;;;;;;8.13;5.28;;;;;;;6.44;68.03;101678.34;6212575;23;19912;-84
2021/12/18 11:19:03;;;;;;;7.95;5.07;;;;;;;6.64;68.17;101673.56;6212298;23;20078;-84
2021/12/18 11:21:29;;;;;;;9.00;5.90;;;;;;;6.67;68.22;101648.00;6211429;23;20013;-84
2021/12/18 11:24:06;;;;;;;9.50;5.25;;;;;;;6.76;67.44;101662.31;6211502;23;20005;-85
2021/12/18 11:26:35;;;;;;;12.18;5.95;;;;;;;7.06;67.11;101676.16;6211751;23;20009;-84
2021/12/18 11:29:04;;;;;;;9.88;5.45;;;;;;;7.08;66.78;101668.28;6212608;23;20017;-84
2021/12/18 11:31:30;;;;;;;7.47;6.10;;;;;;;7.16;66.69;101660.91;6212215;23;20012;-85
2021/12/18 11:33:57;;;;;;;9.88;6.50;;;;;;;6.82;67.05;101657.28;6211658;23;20044;-82
2021/12/18 11:36:23;;;;;;;8.23;6.07;;;;;;;6.81;67.74;101652.91;6213232;23;20009;-82
2021/12/18 11:38:51;;;;;;;12.43;6.53;;;;;;;6.97;68.20;101657.09;6213856;23;20017;-82
2021/12/18 11:41:18;;;;;;;11.85;6.85;;;;;;;7.24;67.83;101644.03;6213296;23;20072;-82
2021/12/18 11:43:46;;;;;;;8.32;5.72;;;;;;;7.10;65.69;101638.34;6213129;23;20009;-82
2021/12/18 11:46:41;;;;;;;8.93;5.63;;;;;;;7.13;66.23;101631.28;6214148;23;20134;-82
2021/12/18 11:49:09;;;;;;;9.65;6.63;;;;;;;7.05;65.86;101624.88;6207591;23;20439;-82
2021/12/18 11:51:35;;;;;;;8.90;5.82;;;;;;;7.18;65.87;101626.25;6214761;23;20012;-82
2021/12/18 11:54:03;;;;;;;8.82;5.90;;;;;;;7.41;65.88;101613.09;6213313;23;20040;-82
2021/12/18 11:56:48;;;;;;;10.20;6.25;;;;;;;7.53;64.98;101603.75;6213164;23;20009;-82
2021/12/18 11:59:14;;;;;;;7.60;5.20;;;;;;;7.49;64.02;101600.97;6213823;23;20466;-82
2021/12/18 12:01:44;;;;;;;11.70;6.35;;;;;;;7.45;64.75;101599.34;6212739;23;20016;-82
2021/12/18 12:04:10;;;;;;;12.00;6.88;;;;;;;7.49;64.62;101589.91;6212776;23;20342;-82
2021/12/18 12:06:38;;;;;;;11.02;6.72;;;;;;;7.78;64.54;101595.72;6213098;23;20048;-82
2021/12/18 12:09:37;;;;;;;9.25;6.05;;;;;;;7.52;63.96;101601.38;6214469;23;20000;-82
2021/12/18 12:12:11;;;;;;;9.23;5.80;;;;;;;7.46;64.49;101607.25;6215082;23;20023;-82
2021/12/18 12:14:39;;;;;;;12.88;6.75;;;;;;;7.20;65.49;101604.56;6212361;23;20020;-82
2021/12/18 12:17:19;;;;;;;9.07;6.70;;;;;;;7.06;66.60;101598.09;6214469;23;20015;-82
2021/12/18 12:19:50;;;;;;;8.40;6.13;;;;;;;7.02;67.18;101592.53;6213740;23;20032;-83
2021/12/18 12:22:42;;;;;;;9.32;6.40;;;;;;;6.87;66.53;101582.50;6214644;23;20019;-82
2021/12/18 12:25:13;;;;;;;10.52;6.03;;;;;;;6.71;67.15;101581.88;6212856;23;20446;-82
2021/12/18 12:27:50;;;;;;;10.95;6.07;;;;;;;6.56;67.75;101578.09;6214233;23;20465;-82
2021/12/18 12:30:33;;;;;;;10.65;7.10;;;;;;;6.54;68.02;101567.47;6212173;23;20017;-82